createdAt,value
2022-10-30T00:00:01.686Z,1002.79
2022-10-30T00:05:01.351Z,1002.77
2022-10-30T00:10:01.394Z,1002.82
2022-10-30T00:15:01.578Z,1002.82
2022-10-30T00:20:01.611Z,1002.76
2022-10-30T00:25:01.479Z,1002.81
2022-10-30T00:30:01.476Z,1002.68
2022-10-30T00:35:01.875Z,1002.71
2022-10-30T00:40:01.874Z,1002.77
2022-10-30T00:45:01.418Z,1002.78
2022-10-30T00:50:01.581Z,1002.75
2022-10-30T00:55:01.595Z,1002.72
2022-10-30T01:00:08.481Z,1002.73
2022-10-30T01:05:06.343Z,1002.64
2022-10-30T01:10:04.899Z,1002.65
2022-10-30T01:15:08.114Z,1002.76
2022-10-30T01:20:03.985Z,1002.72
2022-10-30T01:25:05.249Z,1002.73
2022-10-30T01:30:02.006Z,1002.68
2022-10-30T01:35:01.971Z,1002.63
2022-10-30T01:40:01.809Z,1002.67
2022-10-30T01:45:01.625Z,1002.73
2022-10-30T01:50:01.584Z,1002.61
2022-10-30T01:55:01.748Z,1002.71
2022-10-30T02:00:01.765Z,1002.64
2022-10-30T02:05:02.319Z,1002.61
2022-10-30T02:10:01.787Z,1002.61
2022-10-30T02:15:02.055Z,1002.56
2022-10-30T02:20:01.899Z,1002.49
2022-10-30T02:25:01.603Z,1002.54
2022-10-30T02:30:01.537Z,1002.49
2022-10-30T02:35:01.425Z,1002.48
2022-10-30T02:40:01.578Z,1002.41
2022-10-30T02:45:01.499Z,1002.42
2022-10-30T02:50:01.796Z,1002.35
2022-10-30T02:55:01.945Z,1002.36
2022-10-30T03:00:01.863Z,1002.39
2022-10-30T03:05:01.930Z,1002.46
2022-10-30T03:10:02.115Z,1002.42
2022-10-30T03:15:02.197Z,1002.38
2022-10-30T03:20:02.185Z,1002.42
2022-10-30T03:25:02.084Z,1002.46
2022-10-30T03:30:01.942Z,1002.5
2022-10-30T03:35:01.991Z,1002.49
2022-10-30T03:40:01.822Z,1002.43
2022-10-30T03:45:01.858Z,1002.45
2022-10-30T03:50:01.589Z,1002.45
2022-10-30T03:55:01.964Z,1002.53
2022-10-30T04:00:01.268Z,1002.45
2022-10-30T04:05:02.049Z,1002.37
2022-10-30T04:10:01.294Z,1002.46
2022-10-30T04:15:01.483Z,1002.51
2022-10-30T04:20:01.935Z,1002.47
2022-10-30T04:25:01.901Z,1002.45
2022-10-30T04:30:02.019Z,1002.53
2022-10-30T04:35:01.884Z,1002.62
2022-10-30T04:40:02.109Z,1002.59
2022-10-30T04:45:04.878Z,1002.5
2022-10-30T04:50:02.051Z,1002.45
2022-10-30T04:55:02.028Z,1002.42
2022-10-30T05:00:01.544Z,1002.42
2022-10-30T05:05:01.678Z,1002.41
2022-10-30T05:10:01.716Z,1002.48
2022-10-30T05:15:01.850Z,1002.5
2022-10-30T05:20:02.270Z,1002.55
2022-10-30T05:25:01.333Z,1002.48
2022-10-30T05:30:01.374Z,1002.52
2022-10-30T05:35:01.443Z,1002.43
2022-10-30T05:40:01.900Z,1002.43
2022-10-30T05:45:02.327Z,1002.37
2022-10-30T05:50:01.802Z,1002.29
2022-10-30T05:55:01.663Z,1002.31
2022-10-30T06:00:01.757Z,1002.28
2022-10-30T06:05:01.861Z,1002.18
2022-10-30T06:10:01.537Z,1002.16
2022-10-30T06:15:01.586Z,1002.17
2022-10-30T06:20:01.910Z,1002.12
2022-10-30T06:25:02.122Z,1002.15
2022-10-30T06:30:01.713Z,1002.18
2022-10-30T06:35:02.066Z,1002.12
2022-10-30T06:40:01.834Z,1002.09
2022-10-30T06:45:01.847Z,1002.1
2022-10-30T06:50:01.660Z,1002.13
2022-10-30T06:55:01.905Z,1002.09
2022-10-30T07:00:02.031Z,1002.06
2022-10-30T07:05:02.255Z,1002.17
2022-10-30T07:10:02.184Z,1002.27
2022-10-30T07:15:02.152Z,1002.4
2022-10-30T07:20:01.717Z,1002.48
2022-10-30T07:25:01.829Z,1002.57
2022-10-30T07:30:01.831Z,1002.61
2022-10-30T07:35:02.154Z,1002.57
2022-10-30T07:40:02.076Z,1002.61
2022-10-30T07:45:02.308Z,1002.61
2022-10-30T07:50:01.258Z,1002.59
2022-10-30T07:55:01.433Z,1002.6
2022-10-30T08:00:04.416Z,1002.57
2022-10-30T08:05:01.504Z,1002.57
2022-10-30T08:10:01.705Z,1002.63
2022-10-30T08:15:01.661Z,1002.65
2022-10-30T08:20:01.688Z,1002.62
2022-10-30T08:25:01.406Z,1002.6
2022-10-30T08:30:01.771Z,1002.58
2022-10-30T08:35:01.357Z,1002.67
2022-10-30T08:40:01.328Z,1002.61
2022-10-30T08:45:01.543Z,1002.5
2022-10-30T08:50:01.573Z,1002.63
2022-10-30T08:55:01.617Z,1002.58
2022-10-30T09:00:01.631Z,1002.59
2022-10-30T09:05:01.915Z,1002.53
2022-10-30T09:10:02.017Z,1002.56
2022-10-30T09:15:01.893Z,1002.55
2022-10-30T09:20:01.935Z,1002.54
2022-10-30T09:25:01.841Z,1002.5
2022-10-30T09:30:02.045Z,1002.4
2022-10-30T09:35:02.088Z,1002.41
2022-10-30T09:40:01.973Z,1002.33
2022-10-30T09:45:27.261Z,1002.22
2022-10-30T09:50:02.043Z,1002.25
2022-10-30T09:55:02.174Z,1002.13
2022-10-30T10:00:01.571Z,1002.15
2022-10-30T10:05:01.701Z,1002.06
2022-10-30T10:10:02.217Z,1002.12
2022-10-30T10:15:02.029Z,1002.08
2022-10-30T10:20:01.300Z,1002.26
2022-10-30T10:25:01.299Z,1002.25
2022-10-30T10:30:01.463Z,1002.26
2022-10-30T10:35:01.662Z,1002.27
2022-10-30T10:40:01.696Z,1002.24
2022-10-30T10:45:01.743Z,1002.15
2022-10-30T10:50:01.731Z,1002.16
2022-10-30T10:55:01.573Z,1002.19
2022-10-30T11:00:01.814Z,1002.1
2022-10-30T11:05:01.791Z,1002.04
2022-10-30T11:10:01.860Z,1002.07
2022-10-30T11:15:01.895Z,1002.1
2022-10-30T11:20:01.899Z,1002.02
2022-10-30T11:25:02.256Z,1002.01
2022-10-30T11:30:02.056Z,1001.96
2022-10-30T11:35:02.109Z,1001.89
2022-10-30T11:40:02.108Z,1001.85
2022-10-30T11:45:02.263Z,1001.82
2022-10-30T11:50:02.147Z,1001.8
2022-10-30T11:55:02.125Z,1001.75
2022-10-30T12:00:04.979Z,1001.74
2022-10-30T12:05:02.119Z,1001.72
2022-10-30T12:10:01.544Z,1001.77
2022-10-30T12:15:01.813Z,1001.72
2022-10-30T12:20:01.451Z,1001.76
2022-10-30T12:25:01.378Z,1001.79
2022-10-30T12:30:09.746Z,1001.87
2022-10-30T12:35:01.853Z,1001.78
2022-10-30T12:40:02.178Z,1001.76
2022-10-30T12:45:01.859Z,1001.79
2022-10-30T12:50:02.425Z,1001.75
2022-10-30T12:55:02.175Z,1001.75
2022-10-30T13:00:02.190Z,1001.77
2022-10-30T13:05:02.131Z,1001.73
2022-10-30T13:10:01.961Z,1001.62
2022-10-30T13:15:02.099Z,1001.57
2022-10-30T13:20:01.271Z,1001.63
2022-10-30T13:25:03.921Z,1001.52
2022-10-30T13:30:01.733Z,1001.52
2022-10-30T13:35:01.676Z,1001.48
2022-10-30T13:40:01.615Z,1001.4
2022-10-30T13:45:01.670Z,1001.48
2022-10-30T13:50:01.736Z,1001.59
2022-10-30T13:55:01.751Z,1001.61
2022-10-30T14:00:01.683Z,1001.64
2022-10-30T14:05:01.760Z,1001.61
2022-10-30T14:10:01.971Z,1001.66
2022-10-30T14:15:01.302Z,1001.73
2022-10-30T14:20:01.414Z,1001.71
2022-10-30T14:25:01.694Z,1001.77
2022-10-30T14:30:01.649Z,1001.83
2022-10-30T14:35:02.227Z,1001.76
2022-10-30T14:40:02.221Z,1001.76
2022-10-30T14:45:02.057Z,1001.69
2022-10-30T14:50:01.914Z,1001.68
2022-10-30T14:55:01.923Z,1001.58
2022-10-30T15:00:01.842Z,1001.47
2022-10-30T15:05:05.430Z,1001.52
2022-10-30T15:10:01.920Z,1001.6
2022-10-30T15:15:02.214Z,1001.65
2022-10-30T15:20:02.161Z,1001.73
2022-10-30T15:25:02.037Z,1001.72
2022-10-30T15:30:02.309Z,1001.8
2022-10-30T15:35:02.000Z,1001.84
2022-10-30T15:40:01.878Z,1001.86
2022-10-30T15:45:02.140Z,1001.86
2022-10-30T15:50:01.261Z,1001.94
2022-10-30T15:55:01.323Z,1002.04
2022-10-30T16:00:01.509Z,1002.08
2022-10-30T16:05:01.963Z,1002.26
2022-10-30T16:10:01.424Z,1002.21
2022-10-30T16:15:01.894Z,1002.21
2022-10-30T16:20:02.021Z,1002.35
2022-10-30T16:25:01.315Z,1002.46
2022-10-30T16:30:01.363Z,1002.52
2022-10-30T16:35:01.449Z,1002.52
2022-10-30T16:40:01.629Z,1002.49
2022-10-30T16:45:01.343Z,1002.57
2022-10-30T16:50:01.484Z,1002.64
2022-10-30T16:55:02.012Z,1002.7
2022-10-30T17:00:01.705Z,1002.76
2022-10-30T17:05:02.230Z,1002.94
2022-10-30T17:10:02.226Z,1003.01
2022-10-30T17:15:01.926Z,1003.04
2022-10-30T17:20:02.038Z,1003.05
2022-10-30T17:25:01.507Z,1003.12
2022-10-30T17:30:02.453Z,1003.15
2022-10-30T17:35:01.876Z,1003.33
2022-10-30T17:40:02.015Z,1003.25
2022-10-30T17:45:01.536Z,1003.39
2022-10-30T17:50:01.404Z,1003.51
2022-10-30T17:55:02.411Z,1003.57
2022-10-30T18:00:02.200Z,1003.68
2022-10-30T18:05:01.573Z,1003.76
2022-10-30T18:10:02.610Z,1003.77
2022-10-30T18:15:01.536Z,1003.81
2022-10-30T18:20:01.764Z,1003.84
2022-10-30T18:25:01.862Z,1003.88
2022-10-30T18:30:02.239Z,1003.9
2022-10-30T18:35:01.928Z,1003.94
2022-10-30T18:40:02.275Z,1003.91
2022-10-30T18:45:02.380Z,1003.96
2022-10-30T18:50:02.118Z,1004.05
2022-10-30T18:55:01.808Z,1004.1
2022-10-30T19:00:02.327Z,1004.08
2022-10-30T19:05:02.260Z,1004.13
2022-10-30T19:10:01.676Z,1004.15
2022-10-30T19:15:01.927Z,1004.22
2022-10-30T19:20:01.721Z,1004.22
2022-10-30T19:25:01.638Z,1004.24
2022-10-30T19:30:02.381Z,1004.32
2022-10-30T19:35:02.067Z,1004.35
2022-10-30T19:40:01.877Z,1004.32
2022-10-30T19:45:01.837Z,1004.35
2022-10-30T19:50:01.556Z,1004.46
2022-10-30T19:55:01.778Z,1004.38
2022-10-30T20:00:02.218Z,1004.37
2022-10-30T20:05:02.168Z,1004.39
2022-10-30T20:10:01.986Z,1004.4
2022-10-30T20:15:02.439Z,1004.43
2022-10-30T20:20:02.028Z,1004.46
2022-10-30T20:25:02.219Z,1004.5
2022-10-30T20:30:02.265Z,1004.41
2022-10-30T20:35:07.399Z,1004.53
2022-10-30T20:40:01.922Z,1004.53
2022-10-30T20:45:01.860Z,1004.56
2022-10-30T20:50:01.918Z,1004.57
2022-10-30T20:55:01.638Z,1004.55
2022-10-30T21:00:02.376Z,1004.55
2022-10-30T21:05:12.173Z,1004.56
2022-10-30T21:10:02.472Z,1004.68
2022-10-30T21:15:02.327Z,1004.69
2022-10-30T21:20:01.764Z,1004.62
2022-10-30T21:25:01.789Z,1004.66
2022-10-30T21:30:02.272Z,1004.7
2022-10-30T21:35:02.228Z,1004.76
2022-10-30T21:40:02.167Z,1004.8
2022-10-30T21:45:03.042Z,1004.89
2022-10-30T21:50:05.987Z,1004.89
2022-10-30T21:55:02.480Z,1004.99
2022-10-30T22:00:05.928Z,1004.95
2022-10-30T22:05:02.266Z,1005.06
2022-10-30T22:10:02.534Z,1005.11
2022-10-30T22:15:02.270Z,1005.13
2022-10-30T22:20:01.756Z,1005.15
2022-10-30T22:25:02.820Z,1005.2
2022-10-30T22:30:11.131Z,1005.21
2022-10-30T22:35:02.140Z,1005.19
2022-10-30T22:40:03.776Z,1005.25
2022-10-30T22:45:02.282Z,1005.35
2022-10-30T22:50:01.976Z,1005.37
2022-10-30T22:55:02.682Z,1005.38
2022-10-30T23:00:02.650Z,1005.46
2022-10-30T23:05:02.382Z,1005.4
2022-10-30T23:10:02.760Z,1005.48
2022-10-30T23:15:03.865Z,1005.45
2022-10-30T23:20:02.982Z,1005.46
2022-10-30T23:25:02.798Z,1005.57
2022-10-30T23:30:02.330Z,1005.55
2022-10-30T23:35:04.246Z,1005.55
2022-10-30T23:40:02.812Z,1005.59
2022-10-30T23:45:02.964Z,1005.53
2022-10-30T23:50:01.654Z,1005.53
2022-10-30T23:55:02.204Z,1005.55
